Time;durP1;ratioP1;P1;durP2;ratioP2;P2;SDS_P1;SDS_P2;PMS_P1;PMS_P2;Temp;Humidity;BMP_temperature;BMP_pressure;BME280_temperature;BME280_humidity;BME280_pressure;Samples;Min_cycle;Max_cycle;Signal;HPM_P1;HPM_P2
2023/10/12 00:00:27;;;;;;;7.93;5.27;;;13.20;99.90;;;;;;5030235;28;20528;-64
2023/10/12 00:02:57;;;;;;;5.57;5.00;;;13.20;99.90;;;;;;5030623;28;20822;-63
2023/10/12 00:05:27;;;;;;;8.23;5.03;;;13.20;99.90;;;;;;5030568;28;20456;-64
2023/10/12 00:07:56;;;;;;;9.57;6.37;;;13.20;99.90;;;;;;5030128;28;20215;-63
2023/10/12 00:10:23;;;;;;;6.43;4.97;;;13.20;99.90;;;;;;5030714;28;20465;-64
2023/10/12 00:12:53;;;;;;;9.87;6.20;;;13.20;99.90;;;;;;5030567;28;20446;-63
2023/10/12 00:15:28;;;;;;;5.85;5.32;;;13.10;99.90;;;;;;5031026;28;20833;-64
2023/10/12 00:17:57;;;;;;;7.60;6.20;;;13.10;99.90;;;;;;5030517;28;20218;-63
2023/10/12 00:20:34;;;;;;;7.00;5.37;;;13.20;99.90;;;;;;5030531;28;20500;-64
2023/10/12 00:23:09;;;;;;;9.10;5.63;;;13.10;99.90;;;;;;5030252;28;20449;-64
2023/10/12 00:25:45;;;;;;;7.78;5.30;;;13.10;99.90;;;;;;5030997;28;20260;-64
2023/10/12 00:28:13;;;;;;;5.40;5.00;;;13.20;99.90;;;;;;5030470;28;20213;-64
2023/10/12 00:30:41;;;;;;;8.00;5.93;;;13.20;99.90;;;;;;5030564;28;20827;-64
2023/10/12 00:33:08;;;;;;;5.37;4.77;;;13.10;99.90;;;;;;5030550;28;20896;-63
2023/10/12 00:35:37;;;;;;;5.40;4.90;;;13.10;99.90;;;;;;5030381;28;20465;-64
2023/10/12 00:38:15;;;;;;;6.35;4.60;;;13.00;99.90;;;;;;5030178;28;20791;-64
2023/10/12 00:40:49;;;;;;;10.83;5.63;;;13.00;99.90;;;;;;5057021;22;20344;-64
2023/10/12 00:43:16;;;;;;;7.95;6.50;;;13.00;99.90;;;;;;5032232;28;20463;-65
2023/10/12 00:45:43;;;;;;;6.50;4.70;;;13.00;99.90;;;;;;5034229;28;20685;-64
2023/10/12 00:48:16;;;;;;;7.35;5.07;;;13.00;99.90;;;;;;5033866;28;20456;-65
2023/10/12 00:50:44;;;;;;;7.67;5.63;;;13.10;99.90;;;;;;5033844;28;20651;-65
2023/10/12 00:53:22;;;;;;;8.77;7.87;;;13.10;99.90;;;;;;5034233;28;20449;-64
2023/10/12 00:55:49;;;;;;;5.35;4.82;;;13.00;99.90;;;;;;5034225;28;20457;-65
2023/10/12 00:58:17;;;;;;;5.57;4.60;;;13.00;99.90;;;;;;5033730;28;20287;-65
2023/10/12 01:00:45;;;;;;;6.30;5.70;;;13.00;99.90;;;;;;5033672;28;20575;-65
2023/10/12 01:08:50;;;;;;;6.20;5.60;;;12.90;99.90;;;;;;5017810;28;20435;-65
2023/10/12 01:11:23;;;;;;;5.93;5.33;;;12.80;99.90;;;;;;5033548;28;20573;-64
2023/10/12 01:14:03;;;;;;;5.43;4.93;;;12.70;99.90;;;;;;5033505;28;20454;-64
2023/10/12 01:16:42;;;;;;;7.80;5.10;;;12.70;99.90;;;;;;5033375;28;20445;-64
2023/10/12 01:19:09;;;;;;;6.80;6.10;;;12.60;99.90;;;;;;5033107;28;20480;-65
2023/10/12 01:21:38;;;;;;;9.07;5.37;;;12.60;99.90;;;;;;5033306;28;20465;-65
2023/10/12 01:24:11;;;;;;;7.60;5.30;;;12.60;99.90;;;;;;5033384;28;20449;-64
2023/10/12 01:26:38;;;;;;;6.60;5.63;;;12.60;99.90;;;;;;5033474;28;21016;-64
2023/10/12 01:29:10;;;;;;;7.88;5.47;;;12.60;99.90;;;;;;5032934;28;20540;-65
2023/10/12 01:31:38;;;;;;;6.07;4.87;;;12.60;99.90;;;;;;5033434;28;20234;-64
2023/10/12 01:34:05;;;;;;;6.27;5.70;;;12.60;99.90;;;;;;5033335;28;20445;-65
2023/10/12 01:36:32;;;;;;;6.67;5.50;;;12.60;99.90;;;;;;5033153;28;20580;-65
2023/10/12 01:39:12;;;;;;;7.40;6.33;;;12.60;99.90;;;;;;5032837;28;20576;-64
2023/10/12 01:41:41;;;;;;;7.17;5.13;;;12.50;99.90;;;;;;5033068;28;20477;-65
2023/10/12 01:44:10;;;;;;;7.20;6.27;;;12.50;99.90;;;;;;5033057;28;20488;-64
2023/10/12 01:46:39;;;;;;;5.83;5.23;;;12.50;99.90;;;;;;5033165;28;20445;-65
2023/10/12 01:49:07;;;;;;;7.23;4.77;;;12.50;99.90;;;;;;5032604;28;20450;-65
2023/10/12 01:51:36;;;;;;;11.10;5.73;;;12.50;99.90;;;;;;5033082;28;20475;-64
2023/10/12 01:54:05;;;;;;;6.50;5.80;;;12.50;99.90;;;;;;5033056;28;20452;-65
2023/10/12 01:56:34;;;;;;;6.23;5.63;;;12.50;99.90;;;;;;5032993;28;20449;-64
2023/10/12 01:59:05;;;;;;;5.90;4.70;;;12.50;99.90;;;;;;5032509;28;20449;-64
2023/10/12 02:01:34;;;;;;;7.20;6.23;;;12.50;99.90;;;;;;5032717;28;20472;-64
2023/10/12 02:04:02;;;;;;;5.27;4.67;;;12.60;99.90;;;;;;5032713;28;20452;-65
2023/10/12 02:06:29;;;;;;;10.00;5.82;;;12.50;99.90;;;;;;5032678;28;20535;-65
2023/10/12 02:09:08;;;;;;;5.38;4.88;;;12.60;99.90;;;;;;5032225;28;20207;-65
2023/10/12 02:11:43;;;;;;;7.53;6.40;;;12.70;99.90;;;;;;5032365;28;20610;-65
2023/10/12 02:14:12;;;;;;;6.03;5.35;;;12.70;99.90;;;;;;5032468;28;20444;-65
2023/10/12 02:16:43;;;;;;;8.35;5.05;;;12.70;99.90;;;;;;5032198;28;20305;-64
2023/10/12 02:19:19;;;;;;;10.83;5.90;;;12.70;99.90;;;;;;5032261;28;20258;-65
2023/10/12 02:21:46;;;;;;;5.77;5.20;;;12.70;99.90;;;;;;5032264;28;20556;-65
2023/10/12 02:24:14;;;;;;;6.03;5.07;;;12.70;99.90;;;;;;5032387;28;20442;-65
2023/10/12 02:26:52;;;;;;;5.93;5.00;;;12.70;99.90;;;;;;5042809;28;20831;-65
2023/10/12 02:29:20;;;;;;;6.87;5.30;;;12.60;99.90;;;;;;5031553;28;20441;-64
2023/10/12 02:31:58;;;;;;;6.10;5.20;;;12.60;99.90;;;;;;5032747;28;20504;-64
2023/10/12 02:34:27;;;;;;;6.50;5.00;;;12.60;99.90;;;;;;5032252;28;20453;-64
2023/10/12 02:37:15;;;;;;;6.87;5.23;;;12.50;99.90;;;;;;5047826;28;20452;-64
2023/10/12 02:39:43;;;;;;;5.67;5.03;;;12.50;99.90;;;;;;5051632;28;20511;-64
2023/10/12 02:42:17;;;;;;;7.10;5.85;;;12.50;99.90;;;;;;5051620;28;20476;-64
2023/10/12 02:45:15;;;;;;;6.75;5.18;;;12.50;99.90;;;;;;5051903;28;20212;-64
2023/10/12 02:47:45;;;;;;;5.53;5.00;;;12.60;99.90;;;;;;5051938;28;20635;-65
2023/10/12 02:50:27;;;;;;;7.43;6.20;;;12.60;99.90;;;;;;5049273;28;20973;-64
2023/10/12 02:52:54;;;;;;;6.70;5.53;;;12.60;99.90;;;;;;5031497;28;21104;-64
2023/10/12 02:55:40;;;;;;;6.57;4.93;;;12.60;99.90;;;;;;5031603;28;20529;-64
2023/10/12 02:58:17;;;;;;;6.60;5.73;;;12.60;99.90;;;;;;5031191;28;20954;-64
2023/10/12 03:00:47;;;;;;;6.20;5.60;;;12.60;99.90;;;;;;5031587;28;20546;-64
2023/10/12 03:03:23;;;;;;;7.07;6.03;;;12.60;99.90;;;;;;5031841;28;20455;-64
2023/10/12 03:05:52;;;;;;;7.13;5.70;;;12.50;99.90;;;;;;5030340;28;20449;-64
2023/10/12 03:08:20;;;;;;;5.57;5.07;;;12.50;99.90;;;;;;5031117;28;20540;-64
2023/10/12 03:13:34;;;;;;;7.00;6.18;;;12.50;99.90;;;;;;5028065;28;20417;-64
2023/10/12 03:16:12;;;;;;;7.85;5.80;;;12.60;99.90;;;;;;5029009;28;20207;-64
2023/10/12 03:18:39;;;;;;;7.43;5.73;;;12.70;99.90;;;;;;5028725;28;20207;-64
2023/10/12 03:21:11;;;;;;;6.53;5.97;;;12.70;99.90;;;;;;5028791;28;21050;-64
2023/10/12 03:23:39;;;;;;;6.77;6.10;;;12.70;99.90;;;;;;5028908;28;20998;-64
2023/10/12 03:26:17;;;;;;;6.88;5.80;;;12.70;99.90;;;;;;5028906;28;20451;-64
2023/10/12 03:28:44;;;;;;;8.60;5.47;;;12.70;99.90;;;;;;5028424;28;20450;-64
2023/10/12 03:31:22;;;;;;;7.73;5.10;;;12.70;99.90;;;;;;5031676;28;20464;-65
2023/10/12 03:33:54;;;;;;;6.57;5.40;;;12.60;99.90;;;;;;5013772;28;20446;-64
2023/10/12 03:36:25;;;;;;;8.47;5.70;;;12.60;99.90;;;;;;5011036;28;20530;-64
2023/10/12 03:44:36;;;;;;;5.60;5.10;;;12.50;99.90;;;;;;5015125;28;20441;-64
2023/10/12 03:47:14;;;;;;;6.63;6.03;;;12.50;99.90;;;;;;5030469;28;20211;-64
2023/10/12 03:49:57;;;;;;;8.10;6.30;;;12.60;99.90;;;;;;5035964;28;21240;-65
2023/10/12 03:52:29;;;;;;;5.50;5.00;;;12.50;99.90;;;;;;5050388;28;20986;-64
2023/10/12 03:55:09;;;;;;;7.83;6.40;;;12.50;99.90;;;;;;5048587;28;20448;-64
2023/10/12 03:57:41;;;;;;;8.30;6.00;;;12.50;99.90;;;;;;5048660;28;20451;-64
2023/10/12 04:00:25;;;;;;;7.13;5.50;;;12.50;99.90;;;;;;5049840;28;20852;-64
2023/10/12 04:02:59;;;;;;;7.53;6.03;;;12.50;99.90;;;;;;5050439;28;20539;-63
2023/10/12 04:05:51;;;;;;;6.53;5.97;;;12.60;99.90;;;;;;5050552;28;20235;-64
2023/10/12 04:14:09;;;;;;;7.80;7.10;;;12.80;99.90;;;;;;5050230;28;20494;-64
2023/10/12 04:16:45;;;;;;;6.47;5.65;;;12.80;99.90;;;;;;5050754;28;20443;-64
2023/10/12 04:19:16;;;;;;;7.40;6.10;;;12.90;99.90;;;;;;5053856;28;20205;-65
2023/10/12 04:22:05;;;;;;;6.40;5.80;;;12.90;99.90;;;;;;5054210;28;20763;-64
2023/10/12 04:24:42;;;;;;;6.97;6.27;;;13.00;99.90;;;;;;5054500;28;20517;-64
2023/10/12 04:27:24;;;;;;;7.07;5.87;;;13.00;99.90;;;;;;5054698;28;20448;-64
2023/10/12 04:29:56;;;;;;;6.57;5.93;;;13.00;99.90;;;;;;5054324;28;20475;-64
2023/10/12 04:32:38;;;;;;;7.27;6.43;;;13.10;99.90;;;;;;5054121;28;20294;-65
2023/10/12 04:35:18;;;;;;;7.50;6.70;;;13.10;99.90;;;;;;5054504;28;20456;-64
2023/10/12 04:37:45;;;;;;;7.83;6.93;;;13.10;99.90;;;;;;5054138;28;20482;-64
2023/10/12 04:40:32;;;;;;;8.17;5.87;;;13.10;99.90;;;;;;5054082;28;20488;-64
2023/10/12 04:43:05;;;;;;;6.90;6.20;;;13.10;99.90;;;;;;5054107;28;20444;-64
2023/10/12 04:45:52;;;;;;;8.67;6.60;;;13.10;99.90;;;;;;5054216;28;20451;-64
2023/10/12 04:48:21;;;;;;;7.72;6.50;;;13.10;99.90;;;;;;5053622;28;20890;-64
2023/10/12 04:50:59;;;;;;;7.17;6.40;;;13.20;99.90;;;;;;5053976;28;20227;-64
2023/10/12 04:53:35;;;;;;;5.93;5.20;;;13.30;99.90;;;;;;5053904;28;20502;-65
2023/10/12 04:56:09;;;;;;;7.27;6.37;;;13.30;99.90;;;;;;5053953;28;20489;-65
2023/10/12 04:58:37;;;;;;;7.70;6.57;;;13.30;99.90;;;;;;5053487;28;20452;-64
2023/10/12 05:01:19;;;;;;;7.23;6.53;;;13.30;99.90;;;;;;5053722;28;20493;-65
2023/10/12 05:04:08;;;;;;;8.33;6.50;;;13.30;99.90;;;;;;5053285;28;20535;-64
2023/10/12 05:06:46;;;;;;;9.80;6.30;;;13.30;99.90;;;;;;5053485;28;20471;-64
2023/10/12 05:09:13;;;;;;;8.55;6.60;;;13.40;99.90;;;;;;5053315;28;20538;-65
2023/10/12 05:11:40;;;;;;;8.90;7.37;;;13.40;99.90;;;;;;5053516;28;20708;-65
2023/10/12 05:14:14;;;;;;;9.30;8.40;;;13.50;99.90;;;;;;5053534;28;20887;-65
2023/10/12 05:16:43;;;;;;;7.53;6.70;;;13.50;99.90;;;;;;5053766;28;20539;-65
2023/10/12 05:19:10;;;;;;;9.57;6.07;;;13.60;99.90;;;;;;5053493;28;20456;-64
2023/10/12 05:21:39;;;;;;;6.30;5.70;;;13.60;99.90;;;;;;5053446;28;20571;-65
2023/10/12 05:24:08;;;;;;;7.70;7.00;;;13.60;99.90;;;;;;5053351;28;20449;-64
2023/10/12 05:26:35;;;;;;;6.45;5.88;;;13.60;99.90;;;;;;5053303;28;20452;-65
2023/10/12 05:29:35;;;;;;;7.80;6.17;;;13.70;99.90;;;;;;5052575;28;20220;-64
2023/10/12 05:32:06;;;;;;;6.80;6.10;;;13.70;99.90;;;;;;5053113;28;20523;-65
2023/10/12 05:34:34;;;;;;;6.28;5.68;;;13.70;99.90;;;;;;5053173;28;20448;-64
2023/10/12 05:37:08;;;;;;;8.13;7.33;;;13.80;99.90;;;;;;5053021;28;20203;-65
2023/10/12 05:39:42;;;;;;;11.27;8.73;;;13.80;99.90;;;;;;5052847;28;20451;-65
2023/10/12 05:42:09;;;;;;;8.33;7.50;;;13.80;99.90;;;;;;5052934;28;20480;-64
2023/10/12 05:44:42;;;;;;;7.40;6.77;;;13.80;99.90;;;;;;5053090;28;20524;-64
2023/10/12 05:47:11;;;;;;;8.03;7.23;;;13.80;99.90;;;;;;5052615;28;20502;-65
2023/10/12 05:49:40;;;;;;;7.95;7.15;;;13.80;99.90;;;;;;5052365;28;21033;-64
2023/10/12 05:52:09;;;;;;;6.40;5.90;;;13.80;99.90;;;;;;5052887;28;20242;-64
2023/10/12 05:54:38;;;;;;;6.33;5.63;;;13.90;99.90;;;;;;5052987;28;20462;-65
2023/10/12 05:57:17;;;;;;;9.63;6.47;;;13.90;99.90;;;;;;5052694;28;20446;-64
2023/10/12 05:59:44;;;;;;;7.27;5.80;;;13.90;99.90;;;;;;5052387;28;20516;-65
2023/10/12 06:02:12;;;;;;;7.63;6.80;;;13.90;99.90;;;;;;5052491;28;20517;-65
2023/10/12 06:04:39;;;;;;;9.40;7.27;;;14.00;99.90;;;;;;5052786;28;20480;-64
2023/10/12 06:07:08;;;;;;;10.33;6.50;;;14.00;99.90;;;;;;5052176;28;20947;-64
2023/10/12 06:09:37;;;;;;;9.13;6.87;;;14.00;99.90;;;;;;5051769;28;20449;-65
2023/10/12 06:12:07;;;;;;;6.83;6.13;;;14.00;99.90;;;;;;5052320;28;20467;-64
2023/10/12 06:14:34;;;;;;;8.87;7.20;;;14.00;99.90;;;;;;5052370;28;20993;-65
2023/10/12 06:17:03;;;;;;;7.57;6.57;;;14.10;99.90;;;;;;5052433;28;20512;-64
2023/10/12 06:19:34;;;;;;;7.67;6.37;;;14.10;99.90;;;;;;5051909;28;20451;-64
2023/10/12 06:22:13;;;;;;;12.60;7.53;;;14.10;99.90;;;;;;5052386;28;20486;-65
2023/10/12 06:24:44;;;;;;;8.23;7.43;;;14.20;99.90;;;;;;5052295;28;20460;-65
2023/10/12 06:27:23;;;;;;;7.83;7.23;;;14.20;99.90;;;;;;5051952;28;20532;-65
2023/10/12 06:29:52;;;;;;;12.30;7.70;;;14.20;99.90;;;;;;5052084;28;20438;-64
2023/10/12 06:32:19;;;;;;;10.50;9.60;;;14.20;99.90;;;;;;5052008;28;20471;-64
2023/10/12 06:34:48;;;;;;;9.40;7.60;;;14.30;99.90;;;;;;5052210;28;20553;-65
2023/10/12 06:40:26;;;;;;;9.03;8.10;;;14.40;99.90;;;;;;5050976;28;20882;-65
2023/10/12 06:43:57;;;;;;;13.40;12.30;;;14.40;99.90;;;;;;5051926;28;20926;-65
2023/10/12 06:45:46;;;;;;;9.57;8.60;;;14.50;99.90;;;;;;5051721;28;20450;-64
2023/10/12 06:48:23;;;;;;;8.50;7.67;;;14.50;99.90;;;;;;5044140;28;20547;-65
2023/10/12 06:50:53;;;;;;;7.83;7.03;;;14.50;99.90;;;;;;5031916;28;20467;-65
2023/10/12 06:53:24;;;;;;;7.80;6.70;;;14.60;99.90;;;;;;5041787;28;20457;-65
2023/10/12 06:55:58;;;;;;;8.77;6.80;;;14.60;99.90;;;;;;5051291;28;20828;-64
2023/10/12 06:58:36;;;;;;;11.00;7.20;;;14.70;99.90;;;;;;5045807;28;20229;-65
2023/10/12 07:01:18;;;;;;;7.33;6.37;;;14.80;99.90;;;;;;5042358;28;20506;-65
2023/10/12 07:03:48;;;;;;;9.40;6.73;;;14.80;99.90;;;;;;5045429;28;20458;-64
2023/10/12 07:06:15;;;;;;;7.73;6.87;;;14.80;99.90;;;;;;5034103;28;20459;-64
2023/10/12 07:08:43;;;;;;;7.90;7.17;;;14.80;99.90;;;;;;5049881;28;20544;-65
2023/10/12 07:11:13;;;;;;;9.93;8.97;;;14.80;99.90;;;;;;5051237;28;20464;-65
2023/10/12 07:13:41;;;;;;;12.13;7.87;;;14.90;99.90;;;;;;5050626;28;20553;-64
2023/10/12 07:16:08;;;;;;;11.60;8.47;;;14.90;99.90;;;;;;5041812;28;20506;-64
2023/10/12 07:18:35;;;;;;;9.13;7.50;;;15.00;99.90;;;;;;5041675;28;20456;-65
2023/10/12 07:21:05;;;;;;;8.90;8.10;;;15.00;99.90;;;;;;5050006;28;20579;-64
2023/10/12 07:23:35;;;;;;;8.67;7.77;;;15.10;99.90;;;;;;5050483;28;20457;-65
2023/10/12 07:26:08;;;;;;;7.47;6.70;;;15.10;99.90;;;;;;5041591;28;20972;-64
2023/10/12 07:28:39;;;;;;;9.50;7.37;;;15.10;99.90;;;;;;5043431;28;20978;-65
2023/10/12 07:33:58;;;;;;;9.10;6.30;;;15.20;99.90;;;;;;5042728;28;20990;-65
2023/10/12 07:36:37;;;;;;;8.77;6.50;;;15.20;99.90;;;;;;5039862;28;20525;-64
2023/10/12 07:39:17;;;;;;;8.40;7.50;;;15.20;99.90;;;;;;5046964;28;20465;-64
2023/10/12 07:41:53;;;;;;;8.73;7.17;;;15.30;99.90;;;;;;5030460;28;20503;-65
2023/10/12 07:44:22;;;;;;;8.30;6.97;;;15.30;99.90;;;;;;5045812;28;20971;-64
2023/10/12 07:46:49;;;;;;;9.00;7.50;;;15.40;99.90;;;;;;5050869;28;20462;-65
2023/10/12 07:49:29;;;;;;;9.20;7.47;;;15.50;99.90;;;;;;5039016;28;20465;-65
2023/10/12 07:52:05;;;;;;;10.02;7.75;;;15.60;99.90;;;;;;5048486;28;20966;-65
2023/10/12 07:54:47;;;;;;;8.03;7.23;;;15.70;99.90;;;;;;5049178;28;20660;-64
2023/10/12 07:57:14;;;;;;;8.13;7.30;;;15.80;99.90;;;;;;5048879;28;20507;-65
2023/10/12 07:59:54;;;;;;;8.30;7.43;;;15.90;99.90;;;;;;5039703;28;20456;-64
2023/10/12 08:02:32;;;;;;;9.00;7.40;;;16.00;99.90;;;;;;5069378;28;20487;-65
2023/10/12 08:05:15;;;;;;;7.73;7.03;;;16.10;99.90;;;;;;5074368;28;20444;-64
2023/10/12 08:07:59;;;;;;;11.53;8.17;;;16.10;99.90;;;;;;5074250;28;20538;-65
2023/10/12 08:10:48;;;;;;;9.93;6.87;;;16.20;99.90;;;;;;5034477;28;20445;-64
2023/10/12 08:13:25;;;;;;;8.53;7.60;;;16.20;99.90;;;;;;5034540;28;20466;-65
2023/10/12 08:15:58;;;;;;;7.47;6.72;;;16.30;99.90;;;;;;5034506;28;20471;-65
2023/10/12 08:21:23;;;;;;;7.77;7.10;;;16.50;99.90;;;;;;5050718;28;20490;-65
2023/10/12 08:23:50;;;;;;;7.40;6.70;;;16.60;99.90;;;;;;5053024;28;20454;-64
2023/10/12 08:26:34;;;;;;;9.50;6.57;;;16.70;99.90;;;;;;5053363;28;20542;-64
2023/10/12 08:29:09;;;;;;;9.77;6.37;;;16.70;99.90;;;;;;5053455;28;20935;-65
2023/10/12 08:31:43;;;;;;;10.37;6.00;;;16.80;99.90;;;;;;5052155;28;20475;-65
2023/10/12 08:37:17;;;;;;;8.87;6.50;;;16.90;99.90;;;;;;5033546;28;21171;-65
2023/10/12 08:39:49;;;;;;;8.63;6.60;;;17.00;99.90;;;;;;5033150;28;20938;-65
2023/10/12 08:42:36;;;;;;;8.77;7.40;;;17.00;99.90;;;;;;5033085;28;20484;-64
2023/10/12 08:45:08;;;;;;;7.00;6.40;;;17.10;99.90;;;;;;5035751;28;20930;-64
2023/10/12 08:47:48;;;;;;;10.23;7.17;;;17.20;99.90;;;;;;5040776;28;20455;-65
2023/10/12 08:53:04;;;;;;;13.57;12.20;;;17.50;99.90;;;;;;5054283;28;20211;-64
2023/10/12 08:55:32;;;;;;;8.17;7.37;;;17.60;99.90;;;;;;5046737;28;21129;-65
2023/10/12 08:58:11;;;;;;;6.73;6.03;;;17.60;99.90;;;;;;5032944;28;20459;-64
2023/10/12 09:00:43;;;;;;;8.17;6.27;;;17.60;99.90;;;;;;5032951;28;20855;-64
2023/10/12 09:03:32;;;;;;;10.63;6.70;;;17.70;99.90;;;;;;5032315;28;20449;-65
2023/10/12 09:05:59;;;;;;;9.20;6.57;;;17.70;99.90;;;;;;5033114;28;20445;-66
2023/10/12 09:08:39;;;;;;;7.43;6.63;;;17.70;99.90;;;;;;5032436;28;20967;-65
2023/10/12 09:11:14;;;;;;;7.90;7.10;;;17.80;99.90;;;;;;5041405;28;20484;-65
2023/10/12 09:13:45;;;;;;;10.15;6.90;;;18.00;99.90;;;;;;5032963;28;20437;-65
2023/10/12 09:16:14;;;;;;;7.40;6.60;;;18.10;99.90;;;;;;5032880;28;20203;-65
2023/10/12 09:18:46;;;;;;;9.30;7.50;;;18.20;99.90;;;;;;5032145;28;20478;-65
2023/10/12 09:21:38;;;;;;;7.53;6.10;;;18.30;99.90;;;;;;5032901;28;20481;-64
2023/10/12 09:24:14;;;;;;;9.07;6.73;;;18.40;99.90;;;;;;5032682;28;20449;-65
2023/10/12 09:26:47;;;;;;;9.43;6.70;;;18.50;99.90;;;;;;5032893;28;20445;-65
2023/10/12 09:29:23;;;;;;;10.27;6.27;;;18.50;99.90;;;;;;5033955;28;20514;-65
2023/10/12 09:32:13;;;;;;;7.13;5.88;;;18.50;99.90;;;;;;5041809;28;20842;-65
2023/10/12 09:34:43;;;;;;;7.68;6.97;;;18.60;99.90;;;;;;5036639;28;20210;-65
2023/10/12 09:37:16;;;;;;;8.10;6.70;;;18.60;99.90;;;;;;5039044;28;20459;-65
2023/10/12 09:39:45;;;;;;;8.80;7.00;;;18.70;99.90;;;;;;5051157;28;20488;-65
2023/10/12 09:42:22;;;;;;;8.45;6.85;;;18.70;99.90;;;;;;5060562;28;20232;-65
2023/10/12 09:44:52;;;;;;;8.55;5.68;;;18.80;99.90;;;;;;5053379;28;20229;-65
2023/10/12 09:47:25;;;;;;;7.37;6.03;;;18.80;99.90;;;;;;5034344;28;20257;-65
2023/10/12 09:50:00;;;;;;;8.30;6.03;;;18.80;99.90;;;;;;5040873;28;20547;-65
2023/10/12 09:52:46;;;;;;;8.05;6.47;;;18.70;99.90;;;;;;5045638;28;20842;-64
2023/10/12 09:55:24;;;;;;;6.60;6.00;;;18.70;99.90;;;;;;5046369;28;20212;-64
2023/10/12 09:57:52;;;;;;;8.67;6.20;;;18.70;99.90;;;;;;5034291;28;20447;-65
2023/10/12 10:00:28;;;;;;;11.07;6.67;;;18.70;99.90;;;;;;5048025;28;20458;-65
2023/10/12 10:02:59;;;;;;;10.60;7.00;;;18.70;99.90;;;;;;5042256;28;20492;-64
2023/10/12 10:05:51;;;;;;;9.27;7.00;;;18.60;99.90;;;;;;5048759;28;20552;-65
2023/10/12 10:08:18;;;;;;;7.73;6.70;;;18.60;99.90;;;;;;5048207;28;20433;-65
2023/10/12 10:10:46;;;;;;;7.33;6.73;;;18.50;99.90;;;;;;5046531;28;20842;-65
2023/10/12 10:13:39;;;;;;;8.10;7.33;;;18.40;99.90;;;;;;5041926;28;20463;-65
2023/10/12 10:16:10;;;;;;;6.70;6.03;;;18.50;99.90;;;;;;5043044;28;20544;-65
2023/10/12 10:18:46;;;;;;;7.50;6.63;;;18.40;99.90;;;;;;5050582;28;20448;-64
2023/10/12 10:21:19;;;;;;;10.30;7.10;;;18.40;99.90;;;;;;5048912;28;20503;-64
2023/10/12 10:23:49;;;;;;;9.20;7.30;;;18.40;99.90;;;;;;5051614;28;20531;-65
2023/10/12 10:26:20;;;;;;;9.48;6.00;;;18.40;99.90;;;;;;5043177;28;20535;-64
2023/10/12 10:28:55;;;;;;;9.50;6.77;;;18.40;99.90;;;;;;5050319;28;20264;-64
2023/10/12 10:31:26;;;;;;;7.13;6.20;;;18.50;99.90;;;;;;5047665;28;20482;-64
2023/10/12 10:33:58;;;;;;;11.60;8.20;;;18.50;99.90;;;;;;5050178;28;20448;-64
2023/10/12 10:36:34;;;;;;;7.50;6.80;;;18.60;99.90;;;;;;5047180;28;20210;-64
2023/10/12 10:39:04;;;;;;;8.03;6.70;;;18.60;99.90;;;;;;5051069;28;20446;-65
2023/10/12 10:41:45;;;;;;;7.30;6.13;;;18.60;99.90;;;;;;5043220;28;20992;-64
2023/10/12 10:44:15;;;;;;;7.77;7.10;;;18.60;99.90;;;;;;5050582;28;20535;-64
2023/10/12 10:46:44;;;;;;;11.63;6.63;;;18.60;99.90;;;;;;5038552;28;20517;-65
2023/10/12 10:49:16;;;;;;;7.57;6.93;;;18.70;99.90;;;;;;5050025;28;20449;-64
2023/10/12 10:51:47;;;;;;;11.60;6.70;;;18.70;99.90;;;;;;5037869;28;20461;-64
2023/10/12 10:54:19;;;;;;;8.40;7.60;;;18.70;99.90;;;;;;5046795;28;20440;-64
2023/10/12 10:56:49;;;;;;;8.30;7.37;;;18.70;99.90;;;;;;5035745;28;20946;-64
2023/10/12 10:59:18;;;;;;;13.82;7.78;;;18.70;99.90;;;;;;5050250;28;20459;-64
2023/10/12 11:01:49;;;;;;;8.70;7.80;;;18.70;99.90;;;;;;5037480;28;20258;-64
2023/10/12 11:04:41;;;;;;;9.60;6.80;;;18.80;99.90;;;;;;5046934;28;20444;-65
2023/10/12 11:07:15;;;;;;;9.50;7.10;;;18.80;99.90;;;;;;5039266;28;20256;-65
2023/10/12 11:10:09;;;;;;;8.10;7.20;;;19.00;99.90;;;;;;5037800;28;20444;-65
2023/10/12 11:12:38;;;;;;;7.53;6.20;;;19.00;99.90;;;;;;5034422;28;20449;-64
2023/10/12 11:15:09;;;;;;;9.37;6.80;;;19.00;99.90;;;;;;5048986;28;20961;-64
2023/10/12 11:17:41;;;;;;;8.93;7.80;;;18.90;99.90;;;;;;5037815;28;20532;-64
2023/10/12 11:20:28;;;;;;;8.40;7.13;;;18.90;99.90;;;;;;5046825;28;20441;-64
2023/10/12 11:22:57;;;;;;;7.93;6.90;;;18.90;99.90;;;;;;5037080;28;20480;-64
2023/10/12 11:25:26;;;;;;;9.10;6.57;;;18.90;99.90;;;;;;5040333;28;20453;-64
2023/10/12 11:27:54;;;;;;;7.93;7.23;;;18.80;99.90;;;;;;5044868;28;20480;-64
2023/10/12 11:30:29;;;;;;;9.53;7.70;;;18.80;99.90;;;;;;5034206;28;20445;-64
2023/10/12 11:32:58;;;;;;;9.77;7.53;;;18.70;99.90;;;;;;5044023;28;21301;-64
2023/10/12 11:35:34;;;;;;;8.23;7.53;;;18.80;99.90;;;;;;5042018;28;20457;-63
2023/10/12 11:38:04;;;;;;;8.70;7.80;;;18.70;99.90;;;;;;5050216;28;20448;-64
2023/10/12 11:40:32;;;;;;;17.58;7.20;;;18.70;99.90;;;;;;5046620;28;20456;-63
2023/10/12 11:42:58;;;;;;;10.33;8.20;;;18.70;99.90;;;;;;5037014;28;20327;-63
2023/10/12 11:45:33;;;;;;;10.10;8.77;;;18.70;99.90;;;;;;5044848;28;20439;-63
2023/10/12 11:48:15;;;;;;;11.57;7.83;;;18.60;99.90;;;;;;5042821;28;20449;-64
2023/10/12 11:50:44;;;;;;;10.48;7.80;;;18.60;99.90;;;;;;5035005;28;20481;-63
2023/10/12 11:53:17;;;;;;;9.80;8.52;;;18.60;99.90;;;;;;5032591;28;20233;-64
2023/10/12 11:55:47;;;;;;;10.53;8.17;;;18.70;99.90;;;;;;5042195;28;20623;-64
2023/10/12 11:58:18;;;;;;;11.23;8.70;;;18.80;99.90;;;;;;5040771;28;20452;-63
2023/10/12 12:00:49;;;;;;;10.83;7.53;;;18.70;99.90;;;;;;5034408;28;20496;-64
2023/10/12 12:03:17;;;;;;;9.87;7.97;;;18.70;99.90;;;;;;5046658;28;20481;-64
2023/10/12 12:05:50;;;;;;;9.77;8.63;;;18.70;99.90;;;;;;5036964;28;20531;-65
2023/10/12 12:08:19;;;;;;;8.43;7.60;;;18.70;99.90;;;;;;5049628;28;20743;-64
2023/10/12 12:10:54;;;;;;;9.63;8.70;;;18.80;99.90;;;;;;5034425;28;20499;-64
2023/10/12 12:13:21;;;;;;;9.17;8.30;;;18.80;99.90;;;;;;5034024;28;20436;-63
2023/10/12 12:15:49;;;;;;;10.50;8.40;;;18.80;99.90;;;;;;5041411;28;20995;-63
2023/10/12 12:18:19;;;;;;;7.40;6.80;;;18.80;99.90;;;;;;5040987;28;20457;-63
2023/10/12 12:20:47;;;;;;;8.97;8.10;;;18.80;99.90;;;;;;5034435;28;20466;-63
2023/10/12 12:23:15;;;;;;;11.60;8.20;;;18.80;99.90;;;;;;5046185;28;20488;-63
2023/10/12 12:25:44;;;;;;;9.53;8.20;;;18.80;99.90;;;;;;5036034;28;20532;-64
2023/10/12 12:28:14;;;;;;;8.88;7.90;;;18.80;99.90;;;;;;5038614;28;20445;-64
2023/10/12 12:30:51;;;;;;;9.37;8.47;;;18.80;99.90;;;;;;5043830;28;20719;-64
2023/10/12 12:33:18;;;;;;;9.73;8.60;;;18.90;99.90;;;;;;5046068;28;20444;-64
2023/10/12 12:35:46;;;;;;;9.07;8.17;;;18.90;99.90;;;;;;5036670;28;20499;-63
2023/10/12 12:38:22;;;;;;;11.70;8.50;;;18.90;99.90;;;;;;5049143;28;20534;-64
2023/10/12 12:40:53;;;;;;;10.67;8.30;;;18.90;99.90;;;;;;5036896;28;20472;-64
2023/10/12 12:43:21;;;;;;;8.73;7.83;;;18.80;99.90;;;;;;5049643;28;20576;-64
2023/10/12 12:45:47;;;;;;;9.43;7.70;;;18.90;99.90;;;;;;5040933;28;20442;-63
2023/10/12 12:48:14;;;;;;;9.80;8.00;;;18.80;99.90;;;;;;5041631;28;20532;-63
2023/10/12 12:50:43;;;;;;;14.20;7.70;;;18.90;99.90;;;;;;5047796;28;20491;-64
2023/10/12 12:53:11;;;;;;;10.97;8.00;;;18.90;99.90;;;;;;5036539;28;20726;-64
2023/10/12 12:55:39;;;;;;;10.30;7.47;;;18.90;99.90;;;;;;5047018;28;20445;-63
2023/10/12 12:58:09;;;;;;;9.57;8.67;;;18.90;99.90;;;;;;5042703;28;20970;-64
2023/10/12 13:00:36;;;;;;;8.47;7.63;;;18.90;99.90;;;;;;5037868;28;20527;-64
2023/10/12 13:03:03;;;;;;;9.00;7.77;;;18.90;99.90;;;;;;5041971;28;20561;-64
2023/10/12 13:05:30;;;;;;;9.80;8.13;;;18.90;99.90;;;;;;5041973;28;20447;-64
2023/10/12 13:07:57;;;;;;;11.23;8.77;;;18.90;99.90;;;;;;5040437;28;20444;-64
2023/10/12 13:10:26;;;;;;;9.80;8.37;;;18.80;99.90;;;;;;5041135;28;20509;-64
2023/10/12 13:12:53;;;;;;;9.73;8.07;;;18.80;99.90;;;;;;5052533;28;20531;-65
2023/10/12 13:15:23;;;;;;;8.43;7.70;;;18.70;99.90;;;;;;5041295;28;20463;-64
2023/10/12 13:17:49;;;;;;;9.20;7.93;;;18.70;99.90;;;;;;5044590;28;20457;-65
2023/10/12 13:20:21;;;;;;;8.10;7.37;;;18.70;99.90;;;;;;5039798;28;20540;-64
2023/10/12 13:22:49;;;;;;;21.37;7.77;;;18.70;99.90;;;;;;5052354;28;20565;-64
2023/10/12 13:25:18;;;;;;;8.30;7.15;;;18.70;99.90;;;;;;5041504;28;20502;-65
2023/10/12 13:27:49;;;;;;;11.97;8.97;;;18.70;99.90;;;;;;5049489;28;20207;-65
2023/10/12 13:30:16;;;;;;;9.20;8.23;;;18.70;99.90;;;;;;5041339;28;20459;-65
2023/10/12 13:32:48;;;;;;;8.57;7.82;;;18.70;99.90;;;;;;5052848;28;20436;-65
2023/10/12 13:35:31;;;;;;;9.67;7.37;;;18.70;99.90;;;;;;5047716;28;20210;-65
2023/10/12 13:38:02;;;;;;;9.83;7.80;;;18.70;99.90;;;;;;5052174;28;20509;-64
2023/10/12 13:40:29;;;;;;;8.80;7.90;;;18.70;99.90;;;;;;5046331;28;20501;-65
2023/10/12 13:43:01;;;;;;;7.93;7.33;;;18.70;99.90;;;;;;5047708;28;20936;-64
2023/10/12 13:45:28;;;;;;;9.03;8.30;;;18.70;99.90;;;;;;5048596;28;20448;-65
2023/10/12 13:47:57;;;;;;;9.90;8.87;;;18.70;99.90;;;;;;5043609;28;20449;-64